Time;durP1;ratioP1;P1;durP2;ratioP2;P2;SDS_P1;SDS_P2;PMS_P1;PMS_P2;Temp;Humidity;BMP_temperature;BMP_pressure;BME280_temperature;BME280_humidity;BME280_pressure;Samples;Min_cycle;Max_cycle;Signal;HPM_P1;HPM_P2
2023/10/29 00:01:30;;;;;;;0.30;0.30;;;15.50;99.90;;;;;;5012819;28;20057;-77
2023/10/29 00:03:57;;;;;;;0.35;0.20;;;15.50;99.90;;;;;;5012804;28;20042;-76
2023/10/29 00:06:24;;;;;;;1.08;0.60;;;15.50;99.90;;;;;;5009828;28;20137;-76
2023/10/29 00:08:51;;;;;;;1.00;0.30;;;15.50;99.90;;;;;;5012187;28;20050;-77
2023/10/29 00:11:18;;;;;;;0.70;0.28;;;15.50;99.90;;;;;;5012054;28;20077;-77
2023/10/29 00:13:44;;;;;;;0.60;0.45;;;15.50;99.90;;;;;;5012243;28;20497;-77
2023/10/29 00:16:11;;;;;;;1.40;0.43;;;15.50;99.90;;;;;;5012181;28;20084;-76
2023/10/29 00:18:40;;;;;;;1.92;0.50;;;15.50;99.90;;;;;;5011893;28;20054;-76
2023/10/29 00:21:07;;;;;;;0.75;0.30;;;15.50;99.90;;;;;;5010899;28;20121;-77
2023/10/29 00:23:34;;;;;;;0.45;0.40;;;15.50;99.90;;;;;;5009206;28;20118;-77
2023/10/29 00:26:00;;;;;;;1.20;0.40;;;15.50;99.90;;;;;;5011172;28;20051;-77
2023/10/29 00:28:27;;;;;;;0.65;0.35;;;15.50;99.90;;;;;;5013528;28;20088;-77
2023/10/29 00:30:55;;;;;;;0.57;0.40;;;15.50;99.90;;;;;;5011196;28;20557;-77
2023/10/29 00:33:22;;;;;;;0.77;0.30;;;15.50;99.90;;;;;;5013238;28;20053;-77
2023/10/29 00:35:50;;;;;;;0.40;0.30;;;15.50;99.90;;;;;;5012076;28;20121;-77
2023/10/29 00:38:17;;;;;;;1.00;0.45;;;15.50;99.90;;;;;;5009663;28;20061;-77
2023/10/29 00:40:44;;;;;;;1.05;0.45;;;15.50;99.90;;;;;;5014269;28;20049;-77
2023/10/29 00:43:15;;;;;;;1.58;0.40;;;15.40;99.90;;;;;;5013716;28;20057;-76
2023/10/29 00:45:43;;;;;;;0.73;0.50;;;15.50;99.90;;;;;;5009467;28;20044;-76
2023/10/29 00:48:11;;;;;;;0.55;0.50;;;15.40;99.90;;;;;;5010927;28;20145;-77
2023/10/29 00:50:39;;;;;;;0.30;0.30;;;15.40;99.90;;;;;;5010998;28;20053;-77
2023/10/29 00:53:06;;;;;;;0.70;0.32;;;15.40;99.90;;;;;;5016097;28;20050;-77
2023/10/29 00:55:33;;;;;;;0.63;0.28;;;15.40;99.90;;;;;;5012102;28;20528;-76
2023/10/29 00:58:00;;;;;;;1.17;0.30;;;15.40;99.90;;;;;;5012062;28;20050;-77
2023/10/29 01:00:27;;;;;;;0.57;0.20;;;15.40;99.90;;;;;;5009172;28;20091;-77
2023/10/29 01:02:53;;;;;;;0.28;0.28;;;15.40;99.90;;;;;;5011864;28;20410;-77
2023/10/29 01:05:21;;;;;;;1.80;0.50;;;15.50;99.90;;;;;;5012164;28;20050;-77
2023/10/29 01:07:48;;;;;;;2.47;0.30;;;15.50;99.90;;;;;;5011248;28;20037;-77
2023/10/29 01:10:15;;;;;;;0.32;0.30;;;15.50;99.90;;;;;;5012239;28;20480;-77
2023/10/29 01:12:45;;;;;;;1.48;0.40;;;15.60;99.90;;;;;;5010495;28;20046;-76
2023/10/29 01:15:11;;;;;;;1.02;0.30;;;15.60;99.90;;;;;;5008727;28;20092;-77
2023/10/29 01:17:38;;;;;;;1.13;0.30;;;15.60;99.90;;;;;;5011159;28;20080;-78
2023/10/29 01:20:06;;;;;;;0.45;0.30;;;15.60;99.90;;;;;;5009842;28;20429;-77
2023/10/29 01:22:33;;;;;;;0.75;0.30;;;15.70;99.90;;;;;;5011004;28;20050;-77
2023/10/29 01:25:05;;;;;;;0.60;0.43;;;15.70;99.90;;;;;;5012302;28;20072;-77
2023/10/29 01:27:33;;;;;;;0.60;0.30;;;15.70;99.90;;;;;;5013591;28;20096;-77
2023/10/29 01:29:59;;;;;;;1.23;0.30;;;15.70;99.90;;;;;;5011572;28;20054;-78
2023/10/29 01:32:26;;;;;;;0.40;0.40;;;15.60;99.90;;;;;;5017238;28;20084;-77
2023/10/29 01:34:53;;;;;;;0.68;0.35;;;15.70;99.90;;;;;;5015517;28;20050;-77
2023/10/29 01:37:20;;;;;;;1.02;0.60;;;15.70;99.90;;;;;;5014282;28;20111;-77
2023/10/29 01:39:47;;;;;;;1.73;0.40;;;15.70;99.90;;;;;;5011538;28;20057;-77
2023/10/29 01:42:13;;;;;;;1.60;0.30;;;15.60;99.90;;;;;;5014000;28;20077;-77
2023/10/29 01:44:40;;;;;;;1.23;0.40;;;15.60;99.90;;;;;;5013966;28;20081;-77
2023/10/29 01:47:07;;;;;;;0.55;0.20;;;15.60;99.90;;;;;;5011261;28;20049;-77
2023/10/29 01:49:34;;;;;;;0.35;0.30;;;15.60;99.90;;;;;;5014120;28;20540;-77
2023/10/29 01:52:00;;;;;;;2.92;0.55;;;15.60;99.90;;;;;;5018858;28;20100;-77
2023/10/29 01:54:27;;;;;;;0.75;0.50;;;15.60;99.90;;;;;;5012614;28;20085;-77
2023/10/29 01:56:54;;;;;;;0.70;0.50;;;15.60;99.90;;;;;;5014776;28;20100;-77
2023/10/29 01:59:20;;;;;;;1.05;0.30;;;15.60;99.90;;;;;;5014471;28;20457;-77
2023/10/29 02:01:47;;;;;;;0.88;0.45;;;15.60;99.90;;;;;;5010417;28;20046;-77
2023/10/29 02:04:14;;;;;;;2.05;0.43;;;15.60;99.90;;;;;;5012238;28;20105;-77
2023/10/29 02:06:41;;;;;;;1.85;0.40;;;15.60;99.90;;;;;;5017090;28;20042;-77
2023/10/29 02:09:08;;;;;;;0.68;0.40;;;15.60;99.90;;;;;;5015309;28;20510;-76
2023/10/29 02:11:39;;;;;;;2.22;0.80;;;15.70;99.90;;;;;;5014231;28;20054;-77
2023/10/29 02:14:06;;;;;;;0.70;0.40;;;15.70;99.90;;;;;;5011426;28;20137;-77
2023/10/29 02:16:33;;;;;;;0.43;0.43;;;15.70;99.90;;;;;;5019364;28;20049;-76
2023/10/29 02:19:00;;;;;;;1.73;0.40;;;15.70;99.90;;;;;;4978771;28;1049689;-77
2023/10/29 02:21:27;;;;;;;1.27;0.50;;;15.70;99.90;;;;;;5019098;28;20046;-77
2023/10/29 02:23:54;;;;;;;3.45;0.70;;;15.70;99.90;;;;;;5016628;28;20445;-77
2023/10/29 02:26:23;;;;;;;0.77;0.40;;;15.70;99.90;;;;;;5014510;28;20128;-77
2023/10/29 02:28:49;;;;;;;0.68;0.47;;;15.70;99.90;;;;;;5013609;28;20053;-77
2023/10/29 02:31:17;;;;;;;0.70;0.65;;;15.70;99.90;;;;;;5013659;28;20532;-78
2023/10/29 02:33:44;;;;;;;3.28;0.60;;;15.70;99.90;;;;;;5013248;28;20115;-76
2023/10/29 02:36:11;;;;;;;0.73;0.32;;;15.80;99.90;;;;;;5008677;28;20462;-77
2023/10/29 02:38:37;;;;;;;1.45;0.70;;;15.80;99.90;;;;;;5013347;28;20081;-77
2023/10/29 02:41:05;;;;;;;4.13;0.70;;;15.80;99.90;;;;;;5014041;28;20104;-77
2023/10/29 02:43:32;;;;;;;0.32;0.30;;;15.80;99.90;;;;;;5014002;28;20489;-77
2023/10/29 02:45:59;;;;;;;1.33;0.57;;;15.80;99.90;;;;;;5013972;28;20049;-77
2023/10/29 02:48:26;;;;;;;1.65;0.63;;;15.80;99.90;;;;;;5013888;28;20053;-77
2023/10/29 02:50:54;;;;;;;1.75;0.60;;;15.80;99.90;;;;;;5011953;28;20049;-77
2023/10/29 02:53:21;;;;;;;3.42;0.60;;;15.80;99.90;;;;;;5013656;28;20072;-77
2023/10/29 02:55:48;;;;;;;0.95;0.60;;;15.80;99.90;;;;;;5012767;28;20404;-78
2023/10/29 02:58:15;;;;;;;1.50;0.73;;;15.80;99.90;;;;;;5014724;28;20083;-77
2023/10/29 03:00:41;;;;;;;0.60;0.40;;;15.80;99.90;;;;;;5014851;28;20042;-77
2023/10/29 03:03:08;;;;;;;7.60;1.67;;;15.80;99.90;;;;;;5014941;28;20045;-77
2023/10/29 03:05:35;;;;;;;1.42;0.60;;;15.80;99.90;;;;;;5014517;28;20053;-77
2023/10/29 03:08:15;;;;;;;4.68;0.70;;;15.90;99.90;;;;;;5011978;28;20081;-77
2023/10/29 03:10:42;;;;;;;2.10;0.60;;;15.90;99.90;;;;;;5013226;28;20050;-77
2023/10/29 03:13:09;;;;;;;1.10;0.40;;;15.90;99.90;;;;;;5012416;28;20057;-78
2023/10/29 03:15:36;;;;;;;1.48;0.50;;;15.80;99.90;;;;;;5016170;28;20125;-77
2023/10/29 03:18:02;;;;;;;4.30;0.60;;;15.80;99.90;;;;;;5017052;28;20133;-77
2023/10/29 03:20:29;;;;;;;0.40;0.40;;;15.80;99.90;;;;;;5014353;28;20077;-77
2023/10/29 03:22:56;;;;;;;0.65;0.50;;;15.80;99.90;;;;;;5014006;28;20077;-77
2023/10/29 03:25:23;;;;;;;1.23;0.60;;;15.80;99.90;;;;;;5014765;28;20092;-77
2023/10/29 03:27:50;;;;;;;1.00;0.60;;;15.80;99.90;;;;;;5014304;28;20038;-77
2023/10/29 03:30:16;;;;;;;3.58;0.68;;;15.80;99.90;;;;;;5014437;28;20417;-78
2023/10/29 03:32:44;;;;;;;1.88;0.68;;;15.80;99.90;;;;;;5014364;28;20049;-77
2023/10/29 03:35:10;;;;;;;0.40;0.30;;;15.80;99.90;;;;;;5012512;28;20050;-77
2023/10/29 03:37:37;;;;;;;1.45;0.50;;;15.80;99.90;;;;;;5013433;28;20049;-77
2023/10/29 03:40:06;;;;;;;2.20;0.60;;;15.80;99.90;;;;;;5014312;28;20049;-77
2023/10/29 03:42:33;;;;;;;0.75;0.32;;;15.80;99.90;;;;;;5016520;28;20049;-78
2023/10/29 03:45:00;;;;;;;1.05;0.50;;;15.80;99.90;;;;;;5011901;28;20105;-77
2023/10/29 03:47:27;;;;;;;0.60;0.40;;;15.80;99.90;;;;;;5012318;28;20081;-78
2023/10/29 03:49:55;;;;;;;0.75;0.50;;;15.80;99.90;;;;;;5013617;28;20049;-77
2023/10/29 03:52:22;;;;;;;1.70;0.60;;;15.80;99.90;;;;;;5012722;28;20053;-78
2023/10/29 03:54:49;;;;;;;1.00;0.40;;;15.80;99.90;;;;;;5015601;28;20084;-77
2023/10/29 03:57:15;;;;;;;1.02;0.40;;;15.90;99.90;;;;;;5013450;28;20050;-77
2023/10/29 03:59:43;;;;;;;0.30;0.30;;;15.90;99.90;;;;;;5013701;28;20579;-77
2023/10/29 04:02:10;;;;;;;1.48;0.40;;;15.90;99.90;;;;;;5011984;28;20089;-77
2023/10/29 04:04:36;;;;;;;1.63;0.55;;;15.90;99.90;;;;;;5014145;28;20135;-77
2023/10/29 04:07:03;;;;;;;3.28;0.50;;;15.90;99.90;;;;;;5014030;28;20097;-77
2023/10/29 04:09:30;;;;;;;1.40;0.60;;;15.90;99.90;;;;;;5010666;28;20046;-77
2023/10/29 04:11:59;;;;;;;2.10;0.50;;;15.90;99.90;;;;;;5013342;28;20045;-78
2023/10/29 04:14:26;;;;;;;1.48;0.60;;;15.90;99.90;;;;;;5013942;28;20045;-77
2023/10/29 04:16:53;;;;;;;0.63;0.30;;;15.90;99.90;;;;;;5011222;28;20054;-77
2023/10/29 04:19:19;;;;;;;2.20;0.55;;;15.90;99.90;;;;;;5014021;28;20125;-78
2023/10/29 04:21:46;;;;;;;1.02;0.40;;;15.90;99.90;;;;;;5014387;28;20054;-77
2023/10/29 04:24:13;;;;;;;2.03;0.50;;;15.90;99.90;;;;;;5011136;28;20081;-77
2023/10/29 04:26:39;;;;;;;1.83;0.80;;;15.90;99.90;;;;;;5014811;28;20430;-77
2023/10/29 04:29:06;;;;;;;2.13;0.50;;;15.90;99.90;;;;;;5018986;28;20045;-77
2023/10/29 04:31:33;;;;;;;0.35;0.32;;;15.90;99.90;;;;;;5013325;28;20429;-77
2023/10/29 04:33:59;;;;;;;1.05;0.40;;;15.90;99.90;;;;;;5012697;28;20057;-77
2023/10/29 04:36:26;;;;;;;3.17;0.93;;;15.90;99.90;;;;;;5014280;28;20422;-78
2023/10/29 04:38:53;;;;;;;1.60;0.50;;;15.90;99.90;;;;;;5012822;28;20046;-77
2023/10/29 04:41:20;;;;;;;1.15;0.50;;;16.00;99.90;;;;;;5012380;28;20482;-77
2023/10/29 04:43:47;;;;;;;1.98;0.65;;;16.10;99.90;;;;;;5016185;28;20050;-78
2023/10/29 04:46:14;;;;;;;2.15;0.80;;;16.10;99.90;;;;;;5011112;28;20050;-77
2023/10/29 04:48:41;;;;;;;0.60;0.47;;;16.20;99.90;;;;;;5010369;28;20046;-77
2023/10/29 04:51:08;;;;;;;2.00;0.50;;;16.30;99.90;;;;;;5011470;28;20132;-78
2023/10/29 04:53:35;;;;;;;2.25;0.40;;;16.30;99.90;;;;;;5013053;28;20046;-77
2023/10/29 04:56:03;;;;;;;1.38;0.47;;;16.40;99.90;;;;;;5010029;28;20104;-78
2023/10/29 04:58:31;;;;;;;1.33;0.40;;;16.40;99.90;;;;;;5011731;28;20046;-78
2023/10/29 05:00:58;;;;;;;0.73;0.38;;;16.50;99.90;;;;;;5017355;28;20053;-78
2023/10/29 05:03:27;;;;;;;0.70;0.43;;;16.50;99.90;;;;;;5015977;28;20076;-78
2023/10/29 05:05:55;;;;;;;1.40;0.65;;;16.60;99.90;;;;;;5016965;28;20124;-77
2023/10/29 05:08:22;;;;;;;3.40;0.40;;;16.60;99.90;;;;;;5019960;28;20157;-78
2023/10/29 05:10:49;;;;;;;2.17;0.40;;;16.60;99.90;;;;;;5018874;28;20045;-78
2023/10/29 05:13:16;;;;;;;2.08;0.43;;;16.60;99.90;;;;;;5017425;28;20050;-78
2023/10/29 05:15:43;;;;;;;2.80;0.63;;;16.60;99.90;;;;;;5017485;28;20104;-78
2023/10/29 05:18:10;;;;;;;0.93;0.60;;;16.60;99.90;;;;;;5016634;28;20057;-78
2023/10/29 05:20:37;;;;;;;0.77;0.40;;;16.60;99.90;;;;;;5012505;28;20478;-77
2023/10/29 05:23:08;;;;;;;1.30;0.55;;;16.60;99.90;;;;;;5019447;28;20509;-78
2023/10/29 05:25:38;;;;;;;0.63;0.47;;;16.60;99.90;;;;;;5015053;28;20053;-76
2023/10/29 05:28:05;;;;;;;0.60;0.35;;;16.60;99.90;;;;;;5013801;28;20034;-76
2023/10/29 05:30:32;;;;;;;1.20;0.60;;;16.60;99.90;;;;;;5017448;28;20088;-76
2023/10/29 05:32:59;;;;;;;3.97;0.75;;;16.60;99.90;;;;;;5015291;28;20045;-76
2023/10/29 05:35:26;;;;;;;0.40;0.40;;;16.60;99.90;;;;;;5014613;28;20141;-76
2023/10/29 05:37:52;;;;;;;3.10;0.50;;;16.60;99.90;;;;;;5015360;28;20572;-76
2023/10/29 05:40:19;;;;;;;1.20;0.50;;;16.60;99.90;;;;;;5013405;28;20116;-76
2023/10/29 05:42:46;;;;;;;1.10;0.50;;;16.60;99.90;;;;;;5014406;28;20041;-76
2023/10/29 05:45:13;;;;;;;2.05;0.50;;;16.60;99.90;;;;;;5014533;28;20053;-76
2023/10/29 05:47:39;;;;;;;0.98;0.63;;;16.50;99.90;;;;;;5011131;28;20092;-76
2023/10/29 05:50:07;;;;;;;0.75;0.35;;;16.50;99.90;;;;;;5011160;28;20038;-76
2023/10/29 05:52:34;;;;;;;1.00;0.70;;;16.50;99.90;;;;;;5016225;28;20049;-76
2023/10/29 05:55:02;;;;;;;2.95;0.57;;;16.50;99.90;;;;;;5015592;28;20049;-76
2023/10/29 05:57:29;;;;;;;1.40;0.40;;;16.50;99.90;;;;;;5014255;28;20050;-76
2023/10/29 05:59:56;;;;;;;1.00;0.40;;;16.40;99.90;;;;;;5014335;28;20054;-75
2023/10/29 06:02:23;;;;;;;1.45;0.50;;;16.40;99.90;;;;;;5011786;28;20041;-78
2023/10/29 06:04:50;;;;;;;1.48;0.45;;;16.40;99.90;;;;;;5015868;28;20073;-76
2023/10/29 06:07:17;;;;;;;0.70;0.40;;;16.40;99.90;;;;;;5009821;28;20041;-76
2023/10/29 06:09:44;;;;;;;1.20;0.40;;;16.40;99.90;;;;;;5018714;28;20144;-77
2023/10/29 06:12:11;;;;;;;1.10;0.60;;;16.40;99.90;;;;;;5013463;28;20084;-77
2023/10/29 06:14:37;;;;;;;1.75;0.63;;;16.40;99.90;;;;;;5014373;28;20049;-77
2023/10/29 06:17:04;;;;;;;1.40;0.50;;;16.40;99.90;;;;;;5010366;28;20050;-77
2023/10/29 06:19:51;;;;;;;0.65;0.40;;;16.40;99.90;;;;;;5013876;28;20050;-77
2023/10/29 06:22:18;;;;;;;4.82;0.70;;;16.40;99.90;;;;;;5012916;28;20452;-77
2023/10/29 06:24:44;;;;;;;3.35;0.60;;;16.40;99.90;;;;;;5018342;28;20092;-77
2023/10/29 06:27:11;;;;;;;1.60;0.70;;;16.40;99.90;;;;;;5014223;28;20050;-77
2023/10/29 06:29:38;;;;;;;2.22;0.80;;;16.40;99.90;;;;;;5014034;28;20042;-77
2023/10/29 06:32:05;;;;;;;1.10;0.85;;;16.40;99.90;;;;;;5012096;28;20148;-77
2023/10/29 06:34:32;;;;;;;2.90;1.05;;;16.30;99.90;;;;;;5013522;28;20042;-77
2023/10/29 06:36:58;;;;;;;1.08;0.50;;;16.30;99.90;;;;;;5014423;28;20082;-77
2023/10/29 06:39:25;;;;;;;1.20;0.50;;;16.30;99.90;;;;;;5015003;28;20046;-77
2023/10/29 06:41:52;;;;;;;1.27;0.73;;;16.30;99.90;;;;;;5009818;28;20077;-77
2023/10/29 06:44:19;;;;;;;2.15;0.75;;;16.30;99.90;;;;;;5012533;28;20129;-77
2023/10/29 06:46:45;;;;;;;2.20;0.80;;;16.30;99.90;;;;;;5011916;28;20042;-77
2023/10/29 06:49:12;;;;;;;1.38;0.90;;;16.30;99.90;;;;;;5012869;28;20468;-77
2023/10/29 06:51:39;;;;;;;3.35;1.10;;;16.30;99.90;;;;;;5013287;28;20199;-77
2023/10/29 06:54:06;;;;;;;3.92;0.60;;;16.30;99.90;;;;;;5016475;28;20131;-77
2023/10/29 06:56:33;;;;;;;1.67;0.80;;;16.40;99.90;;;;;;5014626;28;20069;-77
2023/10/29 06:58:59;;;;;;;2.08;1.00;;;16.40;99.90;;;;;;5013490;28;20057;-77
2023/10/29 07:01:26;;;;;;;1.50;0.65;;;16.40;99.90;;;;;;5012418;28;20082;-78
2023/10/29 07:03:54;;;;;;;2.05;0.68;;;16.40;99.90;;;;;;5017617;28;20082;-78
2023/10/29 07:06:21;;;;;;;1.75;0.68;;;16.40;99.90;;;;;;5013429;28;20444;-78
2023/10/29 07:08:47;;;;;;;1.98;1.10;;;16.40;99.90;;;;;;5015419;28;20038;-78
2023/10/29 07:11:14;;;;;;;2.40;1.15;;;16.40;99.90;;;;;;5012041;28;20049;-78
2023/10/29 07:13:41;;;;;;;4.72;1.08;;;16.40;99.90;;;;;;5013771;28;20050;-78
2023/10/29 07:16:09;;;;;;;2.63;0.70;;;16.40;99.90;;;;;;5014404;28;20057;-78
2023/10/29 07:18:36;;;;;;;5.68;1.60;;;16.40;99.90;;;;;;5012124;28;20445;-78
2023/10/29 07:21:04;;;;;;;3.22;1.00;;;16.40;99.90;;;;;;5016446;28;20498;-77
2023/10/29 07:23:31;;;;;;;3.05;0.45;;;16.40;99.90;;;;;;5013305;28;20422;-77
2023/10/29 07:25:59;;;;;;;4.78;2.05;;;16.40;99.90;;;;;;5011193;28;20526;-78
2023/10/29 07:28:28;;;;;;;4.13;2.10;;;16.40;99.90;;;;;;5012632;28;20042;-78
2023/10/29 07:30:58;;;;;;;3.00;1.60;;;16.40;99.90;;;;;;5011964;28;20077;-78
2023/10/29 07:33:24;;;;;;;3.88;2.13;;;16.30;99.90;;;;;;5013497;28;20501;-78
2023/10/29 07:35:51;;;;;;;3.17;1.90;;;16.30;99.90;;;;;;5012009;28;20050;-78
2023/10/29 07:38:18;;;;;;;3.40;2.00;;;16.30;99.90;;;;;;5012589;28;20052;-78
2023/10/29 07:40:45;;;;;;;4.95;2.63;;;16.30;99.90;;;;;;5007239;28;20082;-78
2023/10/29 07:43:11;;;;;;;4.40;2.33;;;16.30;99.90;;;;;;5012078;28;20088;-78
2023/10/29 07:45:38;;;;;;;6.90;2.40;;;16.30;99.90;;;;;;5011003;28;20057;-78
2023/10/29 07:48:05;;;;;;;5.47;2.60;;;16.30;99.90;;;;;;5013321;28;20043;-78
2023/10/29 07:50:31;;;;;;;7.97;2.65;;;16.30;99.90;;;;;;5012296;28;20417;-78
2023/10/29 07:52:58;;;;;;;4.35;2.38;;;16.30;99.90;;;;;;5013513;28;20081;-78
2023/10/29 07:55:25;;;;;;;2.00;1.20;;;16.30;99.90;;;;;;5011023;28;20038;-78
2023/10/29 07:57:52;;;;;;;2.13;1.10;;;16.30;99.90;;;;;;5014714;28;20074;-78
2023/10/29 08:00:19;;;;;;;1.40;0.77;;;16.30;99.90;;;;;;5015068;28;20096;-79
2023/10/29 08:02:46;;;;;;;3.38;0.70;;;16.30;99.90;;;;;;5011846;28;20041;-79
2023/10/29 08:05:14;;;;;;;1.65;0.90;;;16.30;99.90;;;;;;5014662;28;20092;-78
2023/10/29 08:07:41;;;;;;;2.90;0.73;;;16.30;99.90;;;;;;5011809;28;20053;-78
2023/10/29 08:10:09;;;;;;;1.50;0.70;;;16.30;99.90;;;;;;5007225;28;20050;-78
2023/10/29 08:12:35;;;;;;;1.45;0.70;;;16.30;99.90;;;;;;5007509;28;20457;-78
2023/10/29 08:15:02;;;;;;;1.15;0.50;;;16.30;99.90;;;;;;5020542;28;20092;-78
2023/10/29 08:17:30;;;;;;;1.83;0.52;;;16.30;99.90;;;;;;5013857;28;20050;-77
2023/10/29 08:19:58;;;;;;;1.67;0.43;;;16.40;99.90;;;;;;5011437;28;20050;-85
2023/10/29 08:22:25;;;;;;;0.75;0.30;;;16.50;99.90;;;;;;5009388;28;20497;-77
2023/10/29 08:24:53;;;;;;;1.60;0.60;;;16.50;99.90;;;;;;5002655;28;20042;-75
2023/10/29 08:27:20;;;;;;;2.40;1.48;;;16.60;99.90;;;;;;5007521;28;20064;-77
2023/10/29 08:29:48;;;;;;;1.05;0.55;;;16.70;99.90;;;;;;5018883;28;20045;-81
2023/10/29 08:32:15;;;;;;;1.23;0.50;;;16.80;99.90;;;;;;5011280;28;20631;-79
2023/10/29 08:34:42;;;;;;;0.77;0.60;;;16.90;99.90;;;;;;5013302;28;20572;-79
2023/10/29 08:37:10;;;;;;;1.38;0.60;;;17.00;99.90;;;;;;5008693;28;20089;-77
2023/10/29 08:39:37;;;;;;;1.80;0.60;;;17.10;99.90;;;;;;5009228;28;20045;-79
2023/10/29 08:42:04;;;;;;;0.38;0.30;;;17.10;99.90;;;;;;5009885;28;20092;-77
2023/10/29 08:44:31;;;;;;;2.63;0.40;;;17.30;99.90;;;;;;5009806;28;20108;-77
2023/10/29 08:46:58;;;;;;;1.73;0.63;;;17.40;99.90;;;;;;5006582;28;20052;-76
2023/10/29 08:49:25;;;;;;;3.88;0.55;;;17.40;99.90;;;;;;5006994;28;20041;-77
2023/10/29 08:51:51;;;;;;;1.45;0.52;;;17.50;99.90;;;;;;5002470;28;20327;-77
2023/10/29 08:54:18;;;;;;;3.50;0.50;;;17.50;99.90;;;;;;5000269;28;20418;-77
2023/10/29 08:56:45;;;;;;;1.02;0.30;;;17.60;99.90;;;;;;5006855;28;20131;-77
2023/10/29 08:59:15;;;;;;;;;;;17.60;99.90;;;;;;5009328;28;20041;-77
2023/10/29 09:01:42;;;;;;;1.42;0.85;;;17.70;99.90;;;;;;5009134;28;19929;-76
2023/10/29 09:04:10;;;;;;;2.22;0.65;;;17.70;99.90;;;;;;5004900;28;20182;-76
2023/10/29 09:06:37;;;;;;;4.10;0.43;;;17.80;99.90;;;;;;5003948;28;20100;-77
2023/10/29 09:09:04;;;;;;;1.02;0.60;;;17.80;99.90;;;;;;5001537;28;20046;-76
2023/10/29 09:11:31;;;;;;;1.95;0.75;;;17.80;99.90;;;;;;5009005;28;20052;-77
2023/10/29 09:13:59;;;;;;;6.47;1.65;;;17.90;99.90;;;;;;5008246;28;20047;-77
2023/10/29 09:16:25;;;;;;;4.53;1.05;;;17.90;99.90;;;;;;5009883;28;20421;-79
2023/10/29 09:18:52;;;;;;;1.67;0.70;;;18.00;99.90;;;;;;5006268;28;20421;-79
2023/10/29 09:21:19;;;;;;;1.58;0.45;;;18.00;99.90;;;;;;5006857;28;20092;-79
2023/10/29 09:23:46;;;;;;;1.52;0.75;;;18.10;99.90;;;;;;5006735;28;20050;-78
2023/10/29 09:26:13;;;;;;;1.05;0.70;;;18.20;99.90;;;;;;5012256;28;20078;-79
2023/10/29 09:28:43;;;;;;;;;;;18.20;99.90;;;;;;5009174;28;20049;-79
2023/10/29 09:31:19;;;;;;;0.98;0.40;;;18.30;99.90;;;;;;5007657;28;19945;-77
2023/10/29 09:33:47;;;;;;;1.15;0.60;;;18.40;99.90;;;;;;5009439;28;20050;-77
2023/10/29 09:36:13;;;;;;;1.33;0.40;;;18.40;99.90;;;;;;5004850;28;20057;-77
2023/10/29 09:38:41;;;;;;;1.40;0.68;;;18.50;99.90;;;;;;5011564;28;20130;-77
2023/10/29 09:41:08;;;;;;;1.75;0.45;;;18.60;99.90;;;;;;5009517;28;20151;-77
2023/10/29 09:43:41;;;;;;;2.42;0.50;;;18.70;99.90;;;;;;5009595;28;20120;-77
2023/10/29 09:46:10;;;;;;;1.05;0.95;;;18.80;99.90;;;;;;5006251;28;20053;-77
2023/10/29 09:48:37;;;;;;;0.82;0.45;;;18.80;99.90;;;;;;5014260;28;20067;-77
2023/10/29 09:51:06;;;;;;;2.03;0.70;;;18.90;99.90;;;;;;5006657;28;20050;-77
2023/10/29 09:53:37;;;;;;;1.10;0.50;;;19.00;99.90;;;;;;5012467;28;20421;-77
2023/10/29 09:56:12;;;;;;;0.80;0.40;;;19.00;99.90;;;;;;5013402;28;20046;-77
2023/10/29 09:58:39;;;;;;;2.70;0.40;;;19.20;99.90;;;;;;5012557;28;20548;-77
2023/10/29 10:01:08;;;;;;;2.00;0.60;;;19.30;99.90;;;;;;5008252;28;20043;-77
2023/10/29 10:03:35;;;;;;;0.98;0.40;;;19.30;99.90;;;;;;5008840;28;20073;-77
2023/10/29 10:06:03;;;;;;;2.33;0.50;;;19.40;99.90;;;;;;5005339;28;20549;-78
2023/10/29 10:08:32;;;;;;;5.45;0.60;;;19.40;99.90;;;;;;5012615;28;20053;-77
2023/10/29 10:10:59;;;;;;;1.35;0.50;;;19.50;99.90;;;;;;5009924;28;20105;-77
2023/10/29 10:13:37;;;;;;;1.73;0.50;;;19.50;99.90;;;;;;5011849;28;20088;-78
2023/10/29 10:16:12;;;;;;;1.38;0.38;;;19.50;99.90;;;;;;5007099;28;20042;-78
2023/10/29 10:18:48;;;;;;;0.77;0.50;;;19.50;99.90;;;;;;5008840;28;20045;-79
2023/10/29 10:21:16;;;;;;;1.95;0.40;;;19.50;99.90;;;;;;5010597;28;20081;-77
2023/10/29 10:23:47;;;;;;;1.67;0.45;;;19.60;99.90;;;;;;5013529;28;20081;-78
2023/10/29 10:26:18;;;;;;;0.65;0.40;;;19.60;99.90;;;;;;5012724;28;20057;-79
2023/10/29 10:28:56;;;;;;;3.60;0.47;;;19.50;99.90;;;;;;5007839;28;20042;-77
2023/10/29 10:31:27;;;;;;;1.60;0.40;;;19.50;99.90;;;;;;5013801;28;20046;-77
2023/10/29 10:34:16;;;;;;;1.17;0.50;;;19.50;99.90;;;;;;5004873;28;20078;-78
2023/10/29 10:36:44;;;;;;;3.67;0.70;;;19.40;99.90;;;;;;5008287;28;20085;-77
2023/10/29 10:39:12;;;;;;;0.77;0.43;;;19.40;99.90;;;;;;5013543;28;20082;-79
2023/10/29 10:41:46;;;;;;;2.38;0.40;;;19.40;99.90;;;;;;5012964;28;20553;-79
2023/10/29 10:44:15;;;;;;;0.75;0.35;;;19.40;99.90;;;;;;5009801;28;20046;-79
2023/10/29 10:46:49;;;;;;;2.15;0.70;;;19.40;99.90;;;;;;5010001;28;20096;-79
2023/10/29 10:49:17;;;;;;;0.45;0.40;;;19.40;99.90;;;;;;5007090;28;20100;-79
2023/10/29 10:51:45;;;;;;;3.58;0.73;;;19.30;99.90;;;;;;5014355;28;20081;-79
2023/10/29 10:54:15;;;;;;;0.80;0.45;;;19.30;99.90;;;;;;5013318;28;20137;-78
2023/10/29 10:56:42;;;;;;;1.10;0.50;;;19.30;99.90;;;;;;5012648;28;20046;-79
2023/10/29 10:59:09;;;;;;;1.48;0.70;;;19.30;99.90;;;;;;5007266;28;20047;-79
2023/10/29 11:01:38;;;;;;;0.82;0.40;;;19.30;99.90;;;;;;5006237;28;20486;-78
2023/10/29 11:04:08;;;;;;;1.38;0.60;;;19.30;99.90;;;;;;5008304;28;20049;-78
2023/10/29 11:06:36;;;;;;;2.28;0.60;;;19.20;99.90;;;;;;5015113;28;20458;-79
2023/10/29 11:09:12;;;;;;;0.55;0.32;;;19.20;99.90;;;;;;5011759;28;20450;-79
2023/10/29 11:11:49;;;;;;;1.35;0.50;;;19.20;99.90;;;;;;5010366;28;20121;-79
2023/10/29 11:14:20;;;;;;;0.57;0.30;;;19.20;99.90;;;;;;5008747;28;20129;-79
2023/10/29 11:16:55;;;;;;;1.73;0.50;;;19.20;99.90;;;;;;5013752;28;20045;-79
2023/10/29 11:19:45;;;;;;;1.20;0.40;;;19.20;99.90;;;;;;5014952;28;20064;-79
2023/10/29 11:22:22;;;;;;;2.10;0.80;;;19.20;99.90;;;;;;5011801;28;20049;-79
2023/10/29 11:25:08;;;;;;;3.38;0.50;;;19.30;99.90;;;;;;5010681;28;20048;-79
2023/10/29 11:27:45;;;;;;;2.00;0.60;;;19.40;99.90;;;;;;5009298;28;20041;-80
2023/10/29 11:30:22;;;;;;;1.40;0.50;;;19.50;99.90;;;;;;5010391;28;20055;-79
2023/10/29 11:33:10;;;;;;;1.15;0.40;;;19.50;99.90;;;;;;5005941;28;20046;-78
2023/10/29 11:35:37;;;;;;;0.90;0.40;;;19.50;99.90;;;;;;5009126;28;20096;-78
2023/10/29 11:38:28;;;;;;;1.08;0.30;;;19.60;99.90;;;;;;5006938;28;20506;-78
2023/10/29 11:40:55;;;;;;;4.30;0.50;;;19.60;99.90;;;;;;5005019;28;20099;-78
2023/10/29 11:43:22;;;;;;;3.03;0.50;;;19.60;99.90;;;;;;5006633;28;20078;-78
2023/10/29 11:46:00;;;;;;;1.48;0.40;;;19.60;99.90;;;;;;5011146;28;20045;-78
2023/10/29 11:48:33;;;;;;;0.90;0.70;;;19.60;99.90;;;;;;5012273;28;20088;-78
2023/10/29 11:51:08;;;;;;;0.82;0.40;;;19.60;99.90;;;;;;5007163;28;20104;-78
2023/10/29 11:53:39;;;;;;;1.50;0.30;;;19.60;99.90;;;;;;5005921;28;20077;-78
2023/10/29 11:56:10;;;;;;;1.30;0.45;;;19.70;99.90;;;;;;5006067;28;20088;-78
2023/10/29 11:58:37;;;;;;;1.45;0.57;;;19.70;99.90;;;;;;4998421;28;20050;-78
2023/10/29 12:01:04;;;;;;;0.43;0.30;;;19.70;99.90;;;;;;5004931;28;20050;-78
2023/10/29 12:03:31;;;;;;;1.10;0.40;;;19.70;99.90;;;;;;5012167;28;20038;-78
2023/10/29 12:05:58;;;;;;;3.85;1.00;;;19.70;99.90;;;;;;5010235;28;20061;-77
2023/10/29 12:08:26;;;;;;;1.10;0.43;;;19.80;99.90;;;;;;5008137;28;20053;-79
2023/10/29 12:10:54;;;;;;;1.08;0.40;;;19.80;99.90;;;;;;5021380;28;20052;-78
2023/10/29 12:13:21;;;;;;;2.78;0.38;;;19.90;99.90;;;;;;5006043;28;20050;-78
2023/10/29 12:16:00;;;;;;;1.63;0.45;;;19.90;99.90;;;;;;5009466;28;20046;-79
2023/10/29 12:18:27;;;;;;;1.70;0.50;;;19.90;99.90;;;;;;5008801;28;20054;-77
2023/10/29 12:21:10;;;;;;;1.17;0.50;;;20.00;99.90;;;;;;5002219;28;20049;-78
2023/10/29 12:23:38;;;;;;;2.17;0.30;;;19.90;99.90;;;;;;5006760;28;20524;-78
2023/10/29 12:26:08;;;;;;;2.15;0.55;;;19.90;99.90;;;;;;5004021;28;20466;-78
2023/10/29 12:28:36;;;;;;;2.15;0.32;;;19.80;99.90;;;;;;5001658;28;20049;-78
2023/10/29 12:31:03;;;;;;;1.20;0.30;;;19.80;99.90;;;;;;5008615;28;20145;-78
2023/10/29 12:33:34;;;;;;;1.77;0.50;;;19.80;99.90;;;;;;5010301;28;20573;-78
2023/10/29 12:36:08;;;;;;;1.08;0.40;;;19.70;99.90;;;;;;5008568;28;20060;-78
2023/10/29 12:38:38;;;;;;;1.55;0.30;;;19.70;99.90;;;;;;5002162;28;20057;-78
2023/10/29 12:41:14;;;;;;;0.93;0.50;;;19.70;99.90;;;;;;5003776;28;20046;-78
2023/10/29 12:43:43;;;;;;;2.10;0.30;;;19.70;99.90;;;;;;5002208;28;20042;-77
2023/10/29 12:46:12;;;;;;;0.55;0.30;;;19.80;99.90;;;;;;5011065;28;20407;-78
2023/10/29 12:49:01;;;;;;;1.13;0.50;;;19.80;99.90;;;;;;5003981;28;20092;-78
2023/10/29 12:51:33;;;;;;;1.45;0.50;;;19.90;99.90;;;;;;5008007;28;20073;-79
2023/10/29 12:54:17;;;;;;;4.45;0.50;;;19.90;99.90;;;;;;5007151;28;20080;-79